createdAt,value
2022-10-18T00:00:33.172Z,99.99
2022-10-18T00:01:33.120Z,99.99
2022-10-18T00:02:33.192Z,99.99
2022-10-18T00:03:33.137Z,99.99
2022-10-18T00:04:33.091Z,99.99
2022-10-18T00:05:33.108Z,99.99
2022-10-18T00:06:33.085Z,99.99
2022-10-18T00:07:33.326Z,99.99
2022-10-18T00:08:33.058Z,99.99
2022-10-18T00:09:33.039Z,99.99
2022-10-18T00:10:33.213Z,99.99
2022-10-18T00:11:33.012Z,99.99
2022-10-18T00:12:33.041Z,99.99
2022-10-18T00:13:32.994Z,99.99
2022-10-18T00:14:32.995Z,99.99
2022-10-18T00:15:32.984Z,99.99
2022-10-18T00:16:32.952Z,99.99
2022-10-18T00:17:33.091Z,99.99
2022-10-18T00:18:32.949Z,99.99
2022-10-18T00:19:33.159Z,99.99
2022-10-18T00:20:32.917Z,99.99
2022-10-18T00:21:32.960Z,99.99
2022-10-18T00:22:33.183Z,99.99
2022-10-18T00:23:32.882Z,99.99
2022-10-18T00:24:32.884Z,99.99
2022-10-18T00:25:32.880Z,99.99
2022-10-18T00:26:32.863Z,99.99
2022-10-18T00:27:32.837Z,99.99
2022-10-18T00:28:32.872Z,99.99
2022-10-18T00:29:32.816Z,99.99
2022-10-18T00:30:32.944Z,99.99
2022-10-18T00:31:32.816Z,99.99
2022-10-18T00:32:33.066Z,99.99
2022-10-18T00:33:32.768Z,99.99
2022-10-18T00:34:32.776Z,99.99
2022-10-18T00:35:33.048Z,99.99
2022-10-18T00:36:32.833Z,99.99
2022-10-18T00:37:32.728Z,99.99
2022-10-18T00:38:32.752Z,99.99
2022-10-18T00:39:32.789Z,99.99
2022-10-18T00:40:32.804Z,99.99
2022-10-18T00:41:32.796Z,99.99
2022-10-18T00:42:33.437Z,99.99
2022-10-18T00:43:32.777Z,99.99
2022-10-18T00:44:32.801Z,99.99
2022-10-18T00:45:32.797Z,99.99
2022-10-18T00:46:32.877Z,99.99
2022-10-18T00:47:32.816Z,99.99
2022-10-18T00:48:32.809Z,99.99
2022-10-18T00:49:32.841Z,99.99
2022-10-18T00:50:32.709Z,99.99
2022-10-18T00:51:32.788Z,99.99
2022-10-18T00:52:33.135Z,99.99
2022-10-18T00:53:32.544Z,99.99
2022-10-18T00:54:32.528Z,99.99
2022-10-18T00:55:32.508Z,99.99
2022-10-18T00:56:32.524Z,99.99
2022-10-18T00:57:32.508Z,99.99
2022-10-18T00:58:32.500Z,99.99
2022-10-18T00:59:32.464Z,99.99
2022-10-18T01:00:32.483Z,99.99
2022-10-18T01:01:32.477Z,99.99
2022-10-18T01:02:32.855Z,99.99
2022-10-18T01:03:32.421Z,99.99
2022-10-18T01:04:32.409Z,99.99
2022-10-18T01:05:32.432Z,99.99
2022-10-18T01:06:32.392Z,99.99
2022-10-18T01:07:32.765Z,99.99
2022-10-18T01:08:32.382Z,99.99
2022-10-18T01:09:32.392Z,99.99
2022-10-18T01:10:32.352Z,99.99
2022-10-18T01:11:32.348Z,99.99
2022-10-18T01:12:32.342Z,99.99
2022-10-18T01:13:32.343Z,99.99
2022-10-18T01:14:32.304Z,99.99
2022-10-18T01:15:32.293Z,99.99
2022-10-18T01:16:32.274Z,99.99
2022-10-18T01:17:32.663Z,99.99
2022-10-18T01:18:32.276Z,99.99
2022-10-18T01:19:32.252Z,99.99
2022-10-18T01:20:32.225Z,99.99
2022-10-18T01:21:32.233Z,99.99
2022-10-18T01:22:32.233Z,99.99
2022-10-18T01:23:32.395Z,99.99
2022-10-18T01:24:32.193Z,99.99
2022-10-18T01:25:32.182Z,99.99
2022-10-18T01:26:32.165Z,99.99
2022-10-18T01:27:32.433Z,99.99
2022-10-18T01:28:32.231Z,99.99
2022-10-18T01:29:32.137Z,99.99
2022-10-18T01:30:32.113Z,99.99
2022-10-18T01:31:32.127Z,99.99
2022-10-18T01:32:32.085Z,99.99
2022-10-18T01:33:32.171Z,99.99
2022-10-18T01:34:32.086Z,99.99
2022-10-18T01:35:32.077Z,99.99
2022-10-18T01:36:32.076Z,99.99
2022-10-18T01:37:32.588Z,99.99
2022-10-18T01:38:32.025Z,99.99
2022-10-18T01:39:32.149Z,99.99
2022-10-18T01:40:32.009Z,99.99
2022-10-18T01:41:32.010Z,99.99
2022-10-18T01:42:31.997Z,99.99
2022-10-18T01:43:32.009Z,99.99
2022-10-18T01:44:31.982Z,99.99
2022-10-18T01:45:31.945Z,99.99
2022-10-18T01:46:31.941Z,99.99
2022-10-18T01:47:32.244Z,99.99
2022-10-18T01:48:31.919Z,99.99
2022-10-18T01:49:31.910Z,99.99
2022-10-18T01:50:31.910Z,99.99
2022-10-18T01:51:31.877Z,99.99
2022-10-18T01:52:32.068Z,99.99
2022-10-18T01:53:31.883Z,99.99
2022-10-18T01:54:31.846Z,99.99
2022-10-18T01:55:31.890Z,99.99
2022-10-18T01:56:31.825Z,99.99
2022-10-18T01:57:31.812Z,99.99
2022-10-18T01:58:31.818Z,99.99
2022-10-18T01:59:32.271Z,99.99
2022-10-18T02:00:31.783Z,99.99
2022-10-18T02:01:31.770Z,99.99
2022-10-18T02:02:32.161Z,99.99
2022-10-18T02:03:31.753Z,99.99
2022-10-18T02:04:31.730Z,99.99
2022-10-18T02:05:31.750Z,99.99
2022-10-18T02:06:31.758Z,99.99
2022-10-18T02:07:31.709Z,99.99
2022-10-18T02:08:31.679Z,99.99
2022-10-18T02:09:31.682Z,99.99
2022-10-18T02:10:31.671Z,99.99
2022-10-18T02:11:31.662Z,99.99
2022-10-18T02:12:31.781Z,99.99
2022-10-18T02:13:31.643Z,99.99
2022-10-18T02:14:31.622Z,99.99
2022-10-18T02:15:31.642Z,99.99
2022-10-18T02:16:31.590Z,99.99
2022-10-18T02:17:31.594Z,99.99
2022-10-18T02:18:31.563Z,99.99
2022-10-18T02:19:31.641Z,99.99
2022-10-18T02:20:31.594Z,99.99
2022-10-18T02:21:31.574Z,99.99
2022-10-18T02:22:31.798Z,99.99
2022-10-18T02:23:31.566Z,99.99
2022-10-18T02:24:31.623Z,99.99
2022-10-18T02:25:31.594Z,99.99
2022-10-18T02:26:31.578Z,99.99
2022-10-18T02:27:31.628Z,99.99
2022-10-18T02:28:31.616Z,99.99
2022-10-18T02:29:31.607Z,99.99
2022-10-18T02:30:31.626Z,99.99
2022-10-18T02:31:31.634Z,99.99
2022-10-18T02:32:31.891Z,99.99
2022-10-18T02:33:31.672Z,99.99
2022-10-18T02:34:31.704Z,99.99
2022-10-18T02:35:31.568Z,99.99
2022-10-18T02:36:31.594Z,99.99
2022-10-18T02:37:31.360Z,99.99
2022-10-18T02:38:31.607Z,99.99
2022-10-18T02:39:31.823Z,99.99
2022-10-18T02:40:31.331Z,99.99
2022-10-18T02:41:31.326Z,99.99
2022-10-18T02:42:32.133Z,99.99
2022-10-18T02:43:31.308Z,99.99
2022-10-18T02:44:31.275Z,99.99
2022-10-18T02:45:31.259Z,99.99
2022-10-18T02:46:31.250Z,99.99
2022-10-18T02:47:31.503Z,99.99
2022-10-18T02:48:31.246Z,99.99
2022-10-18T02:49:31.239Z,99.99
2022-10-18T02:50:31.231Z,99.99
2022-10-18T02:51:31.215Z,99.99
2022-10-18T02:52:31.187Z,99.99
2022-10-18T02:53:31.199Z,99.99
2022-10-18T02:54:31.149Z,99.99
2022-10-18T02:55:31.162Z,99.99
2022-10-18T02:56:31.178Z,99.99
2022-10-18T02:57:31.337Z,99.99
2022-10-18T02:58:31.128Z,99.99
2022-10-18T02:59:31.212Z,99.99
2022-10-18T03:00:31.092Z,99.99
2022-10-18T03:01:31.132Z,99.99
2022-10-18T03:02:31.070Z,99.99
2022-10-18T03:03:31.079Z,99.99
2022-10-18T03:04:31.043Z,99.99
2022-10-18T03:05:31.116Z,99.99
2022-10-18T03:06:31.011Z,99.99
2022-10-18T03:07:31.489Z,99.99
2022-10-18T03:08:30.999Z,99.99
2022-10-18T03:09:31.124Z,99.99
2022-10-18T03:10:30.979Z,99.99
2022-10-18T03:11:30.972Z,99.99
2022-10-18T03:12:30.943Z,99.99
2022-10-18T03:13:30.961Z,99.99
2022-10-18T03:14:30.924Z,99.99
2022-10-18T03:15:30.955Z,99.99
2022-10-18T03:16:30.900Z,99.99
2022-10-18T03:17:31.291Z,99.99
2022-10-18T03:18:30.883Z,99.99
2022-10-18T03:19:30.883Z,99.99
2022-10-18T03:20:30.865Z,99.99
2022-10-18T03:21:30.865Z,99.99
2022-10-18T03:22:30.832Z,99.99
2022-10-18T03:23:30.831Z,99.99
2022-10-18T03:24:30.823Z,99.99
2022-10-18T03:25:30.832Z,99.99
2022-10-18T03:26:30.795Z,99.99
2022-10-18T03:27:31.074Z,99.99
2022-10-18T03:28:30.820Z,99.99
2022-10-18T03:29:30.772Z,99.99
2022-10-18T03:30:30.764Z,99.99
2022-10-18T03:32:31.154Z,99.99
2022-10-18T03:33:30.715Z,99.99
2022-10-18T03:34:30.703Z,99.99
2022-10-18T03:35:30.711Z,99.99
2022-10-18T03:36:30.671Z,99.99
2022-10-18T03:37:30.671Z,99.99
2022-10-18T03:38:30.655Z,99.99
2022-10-18T03:39:30.656Z,99.99
2022-10-18T03:41:30.663Z,99.99
2022-10-18T03:42:30.961Z,99.99
2022-10-18T03:43:30.603Z,99.99
2022-10-18T03:44:30.585Z,99.99
2022-10-18T03:45:31.546Z,99.99
2022-10-18T03:46:30.584Z,99.99
2022-10-18T03:47:30.556Z,99.99
2022-10-18T03:48:31.216Z,99.99
2022-10-18T03:49:30.581Z,99.99
2022-10-18T03:50:30.524Z,99.99
2022-10-18T03:51:30.652Z,99.99
2022-10-18T03:52:30.933Z,99.99
2022-10-18T03:53:30.490Z,99.99
2022-10-18T03:54:30.469Z,99.99
2022-10-18T03:55:30.496Z,99.99
2022-10-18T03:56:30.472Z,99.99
2022-10-18T03:57:30.448Z,99.99
2022-10-18T03:58:30.431Z,99.99
2022-10-18T03:59:30.448Z,99.99
2022-10-18T04:00:30.428Z,99.99
2022-10-18T04:01:30.496Z,99.99
2022-10-18T04:02:30.749Z,99.99
2022-10-18T04:03:30.520Z,99.99
2022-10-18T04:04:30.496Z,99.99
2022-10-18T04:05:30.529Z,99.99
2022-10-18T04:06:30.632Z,99.99
2022-10-18T04:07:30.434Z,99.99
2022-10-18T04:08:30.442Z,99.99
2022-10-18T04:09:30.329Z,99.99
2022-10-18T04:10:30.349Z,99.99
2022-10-18T04:11:30.312Z,99.99
2022-10-18T04:12:30.615Z,99.99
2022-10-18T04:13:30.336Z,99.99
2022-10-18T04:14:30.349Z,99.99
2022-10-18T04:15:30.348Z,99.99
2022-10-18T04:16:30.343Z,99.99
2022-10-18T04:17:30.641Z,99.99
2022-10-18T04:18:30.373Z,99.99
2022-10-18T04:19:30.364Z,99.99
2022-10-18T04:20:30.254Z,99.99
2022-10-18T04:21:30.345Z,99.99
2022-10-18T04:22:30.429Z,99.99
2022-10-18T04:23:31.841Z,99.99
2022-10-18T04:24:31.171Z,99.99
2022-10-18T04:25:30.230Z,99.99
2022-10-18T04:26:30.450Z,99.99
2022-10-18T04:27:30.369Z,99.99
2022-10-18T04:28:30.224Z,99.99
2022-10-18T04:29:30.117Z,99.99
2022-10-18T04:30:30.118Z,99.99
2022-10-18T04:31:30.098Z,99.99
2022-10-18T04:32:30.064Z,99.99
2022-10-18T04:33:31.124Z,99.99
2022-10-18T04:34:30.148Z,99.99
2022-10-18T04:35:30.021Z,99.99
2022-10-18T04:36:30.045Z,99.99
2022-10-18T04:37:30.254Z,99.99
2022-10-18T04:38:29.973Z,99.99
2022-10-18T04:39:29.973Z,99.99
2022-10-18T04:40:30.052Z,99.99
2022-10-18T04:41:30.317Z,99.99
2022-10-18T04:42:29.935Z,99.99
2022-10-18T04:43:29.941Z,99.99
2022-10-18T04:44:29.925Z,99.99
2022-10-18T04:45:29.897Z,99.99
2022-10-18T04:46:29.926Z,99.99
2022-10-18T04:47:30.216Z,99.99
2022-10-18T04:48:30.065Z,99.99
2022-10-18T04:49:29.853Z,99.99
2022-10-18T04:50:29.825Z,99.99
2022-10-18T04:51:29.858Z,99.99
2022-10-18T04:52:29.845Z,99.99
2022-10-18T04:53:29.828Z,99.99
2022-10-18T04:54:29.807Z,99.99
2022-10-18T04:55:29.797Z,99.99
2022-10-18T04:56:29.777Z,99.99
2022-10-18T04:57:30.050Z,99.99
2022-10-18T04:58:29.738Z,99.99
2022-10-18T04:59:29.790Z,99.99
2022-10-18T05:00:29.717Z,99.99
2022-10-18T05:01:29.783Z,99.99
2022-10-18T05:02:30.007Z,99.99
2022-10-18T05:03:29.698Z,99.99
2022-10-18T05:04:29.686Z,99.99
2022-10-18T05:05:49.684Z,99.99
2022-10-18T05:06:30.778Z,99.99
2022-10-18T05:07:29.677Z,99.99
2022-10-18T05:08:29.653Z,99.99
2022-10-18T05:09:29.629Z,99.99
2022-10-18T05:10:29.607Z,99.99
2022-10-18T05:11:29.617Z,99.99
2022-10-18T05:12:30.458Z,99.99
2022-10-18T05:13:29.598Z,99.99
2022-10-18T05:14:29.601Z,99.99
2022-10-18T05:15:29.563Z,99.99
2022-10-18T05:16:29.538Z,99.99
2022-10-18T05:17:29.567Z,99.99
2022-10-18T05:18:29.518Z,99.99
2022-10-18T05:19:29.529Z,99.99
2022-10-18T05:20:29.510Z,99.99
2022-10-18T05:21:29.478Z,99.99
2022-10-18T05:22:30.211Z,99.99
2022-10-18T05:23:29.481Z,99.99
2022-10-18T05:24:29.469Z,99.99
2022-10-18T05:25:29.438Z,99.99
2022-10-18T05:26:29.443Z,99.99
2022-10-18T05:27:29.418Z,99.99
2022-10-18T05:28:44.861Z,99.99
2022-10-18T05:29:30.391Z,99.99
2022-10-18T05:30:29.395Z,99.99
2022-10-18T05:31:29.383Z,99.99
2022-10-18T05:32:29.627Z,99.99
2022-10-18T05:33:29.358Z,99.99
2022-10-18T05:34:29.334Z,99.99
2022-10-18T05:35:29.358Z,99.99
2022-10-18T05:36:29.331Z,99.99
2022-10-18T05:37:29.335Z,99.99
2022-10-18T05:38:29.345Z,99.99
2022-10-18T05:39:29.271Z,99.99
2022-10-18T05:40:29.295Z,99.99
2022-10-18T05:41:29.262Z,99.99
2022-10-18T05:42:29.492Z,99.99
2022-10-18T05:43:29.234Z,99.99
2022-10-18T05:44:29.243Z,99.99
2022-10-18T05:45:29.210Z,99.99
2022-10-18T05:46:29.643Z,99.99
2022-10-18T05:47:29.255Z,99.99
2022-10-18T05:48:29.184Z,99.99
2022-10-18T05:49:29.194Z,99.99
2022-10-18T05:50:29.169Z,99.99
2022-10-18T05:51:29.158Z,99.99
2022-10-18T05:52:29.254Z,99.99
2022-10-18T05:53:36.642Z,99.99
2022-10-18T05:54:30.129Z,99.99
2022-10-18T05:55:29.172Z,99.99
2022-10-18T05:56:29.220Z,99.99
2022-10-18T05:57:29.373Z,99.99
2022-10-18T05:58:29.208Z,99.99
2022-10-18T05:59:29.089Z,99.99
2022-10-18T06:00:29.167Z,99.99
2022-10-18T06:01:29.058Z,99.99
2022-10-18T06:02:29.089Z,99.99
2022-10-18T06:03:29.010Z,99.99
2022-10-18T06:04:29.017Z,99.99
2022-10-18T06:05:29.021Z,99.99
2022-10-18T06:06:29.008Z,99.99
2022-10-18T06:07:29.175Z,99.99
2022-10-18T06:08:28.967Z,99.99
2022-10-18T06:09:28.954Z,99.99
2022-10-18T06:10:28.935Z,99.99
2022-10-18T06:11:28.931Z,99.99
2022-10-18T06:12:28.907Z,99.99
2022-10-18T06:13:31.183Z,99.99
2022-10-18T06:14:28.900Z,99.99
2022-10-18T06:15:28.866Z,99.99
2022-10-18T06:16:32.454Z,99.99
2022-10-18T06:17:31.808Z,99.99
2022-10-18T06:18:28.847Z,99.99
2022-10-18T06:19:28.839Z,99.99
2022-10-18T06:20:28.808Z,99.99
2022-10-18T06:21:28.806Z,99.99
2022-10-18T06:22:28.813Z,99.99
2022-10-18T06:23:28.786Z,99.99
2022-10-18T06:24:28.799Z,99.99
2022-10-18T06:25:28.767Z,99.99
2022-10-18T06:26:28.762Z,99.99
2022-10-18T06:27:28.822Z,99.99
2022-10-18T06:28:28.813Z,99.99
2022-10-18T06:29:28.707Z,99.99
2022-10-18T06:30:28.732Z,99.99
2022-10-18T06:31:28.698Z,99.99
2022-10-18T06:32:28.691Z,99.99
2022-10-18T06:33:28.672Z,99.99
2022-10-18T06:34:28.671Z,99.99
2022-10-18T06:35:28.680Z,99.99
2022-10-18T06:36:28.640Z,99.99
2022-10-18T06:37:28.913Z,99.99
2022-10-18T06:38:28.619Z,99.99
2022-10-18T06:39:28.619Z,99.99
2022-10-18T06:40:28.620Z,99.99
2022-10-18T06:41:28.588Z,99.99
2022-10-18T06:42:28.581Z,99.99
2022-10-18T06:43:28.553Z,99.99
2022-10-18T06:44:28.560Z,99.99
2022-10-18T06:45:28.541Z,99.99
2022-10-18T06:46:28.533Z,99.99
2022-10-18T06:47:28.511Z,99.99
2022-10-18T06:48:28.516Z,99.99
2022-10-18T06:49:28.481Z,99.99
2022-10-18T06:50:28.512Z,99.99
2022-10-18T06:51:28.451Z,99.99
2022-10-18T06:52:28.574Z,99.99
2022-10-18T06:53:28.449Z,99.99
2022-10-18T06:54:28.446Z,99.99
2022-10-18T06:55:28.445Z,99.99
2022-10-18T06:56:28.412Z,99.99
2022-10-18T06:57:28.424Z,99.99
2022-10-18T06:58:28.392Z,99.99
2022-10-18T06:59:31.145Z,99.99
2022-10-18T07:00:28.380Z,99.99
2022-10-18T07:01:28.415Z,99.99
2022-10-18T07:02:28.344Z,99.99
2022-10-18T07:03:28.336Z,99.99
2022-10-18T07:04:28.316Z,99.99
2022-10-18T07:05:28.365Z,99.99
2022-10-18T07:06:28.302Z,99.99
2022-10-18T07:07:28.294Z,99.99
2022-10-18T07:08:28.284Z,99.99
2022-10-18T07:09:28.272Z,99.99
2022-10-18T07:10:28.456Z,99.99
2022-10-18T07:11:28.244Z,99.99
2022-10-18T07:12:28.224Z,99.99
2022-10-18T07:13:32.453Z,99.99
2022-10-18T07:14:29.375Z,99.99
2022-10-18T07:15:28.256Z,99.99
2022-10-18T07:16:28.176Z,99.99
2022-10-18T07:17:28.621Z,99.99
2022-10-18T07:18:28.172Z,99.99
2022-10-18T07:19:28.152Z,99.99
2022-10-18T07:20:28.156Z,99.99
2022-10-18T07:21:28.117Z,99.99
2022-10-18T07:22:30.243Z,99.99
2022-10-18T07:23:28.093Z,99.99
2022-10-18T07:24:28.215Z,99.99
2022-10-18T07:25:29.916Z,99.99
2022-10-18T07:26:28.102Z,99.99
2022-10-18T07:27:28.052Z,99.99
2022-10-18T07:28:28.099Z,99.99
2022-10-18T07:29:28.604Z,99.99
2022-10-18T07:30:28.028Z,99.99
2022-10-18T07:31:28.018Z,99.99
2022-10-18T07:32:28.000Z,99.99
2022-10-18T07:33:27.985Z,99.99
2022-10-18T07:34:27.981Z,99.99
2022-10-18T07:35:27.973Z,99.99
2022-10-18T07:36:27.976Z,99.99
2022-10-18T07:37:30.200Z,99.99
2022-10-18T07:38:27.942Z,99.99
2022-10-18T07:39:27.909Z,99.99
2022-10-18T07:40:27.909Z,99.99
2022-10-18T07:41:27.900Z,99.99
2022-10-18T07:42:27.916Z,99.99
2022-10-18T07:43:27.869Z,99.99
2022-10-18T07:44:27.868Z,99.99
2022-10-18T07:45:27.953Z,99.99
2022-10-18T07:46:27.850Z,99.99
2022-10-18T07:47:30.058Z,99.99
2022-10-18T07:48:27.844Z,99.99
2022-10-18T07:49:27.804Z,99.99
2022-10-18T07:50:27.801Z,99.99
2022-10-18T07:51:27.773Z,99.99
2022-10-18T07:52:27.781Z,99.99
2022-10-18T07:53:27.789Z,99.99
2022-10-18T07:54:27.766Z,99.99
2022-10-18T07:55:27.737Z,99.99
2022-10-18T07:56:27.742Z,99.99
2022-10-18T07:57:27.718Z,99.99
2022-10-18T07:58:27.733Z,99.99
2022-10-18T07:59:27.719Z,99.99
2022-10-18T08:00:27.680Z,99.99
2022-10-18T08:01:27.704Z,99.99
2022-10-18T08:02:27.661Z,99.99
2022-10-18T08:03:27.669Z,99.99
2022-10-18T08:04:27.640Z,99.99
2022-10-18T08:05:27.654Z,99.99
2022-10-18T08:06:27.613Z,99.99
2022-10-18T08:07:27.592Z,99.99
2022-10-18T08:08:27.639Z,99.99
2022-10-18T08:09:27.593Z,99.99
2022-10-18T08:10:27.572Z,99.99
2022-10-18T08:11:27.554Z,99.99
2022-10-18T08:12:27.553Z,99.99
2022-10-18T08:13:27.545Z,99.99
2022-10-18T08:14:27.553Z,99.99
2022-10-18T08:15:27.493Z,99.99
2022-10-18T08:16:27.544Z,99.99
2022-10-18T08:17:27.485Z,99.99
2022-10-18T08:18:27.489Z,99.99
2022-10-18T08:19:27.465Z,99.99
2022-10-18T08:20:30.770Z,99.99
2022-10-18T08:21:27.445Z,99.99
2022-10-18T08:22:27.448Z,99.99
2022-10-18T08:23:27.418Z,99.99
2022-10-18T08:24:27.666Z,99.99
2022-10-18T08:25:27.445Z,99.99
2022-10-18T08:26:27.777Z,99.99
2022-10-18T08:27:27.381Z,99.99
2022-10-18T08:28:27.397Z,99.99
2022-10-18T08:29:31.551Z,99.99
2022-10-18T08:30:27.378Z,99.99
2022-10-18T08:31:27.844Z,99.99
2022-10-18T08:32:27.329Z,99.99
2022-10-18T08:33:27.305Z,99.99
2022-10-18T08:34:27.355Z,99.99
2022-10-18T08:35:27.290Z,99.99
2022-10-18T08:36:27.289Z,99.99
2022-10-18T08:37:27.277Z,99.99
2022-10-18T08:38:27.257Z,99.99
2022-10-18T08:39:27.246Z,99.99
2022-10-18T08:40:27.270Z,99.99
2022-10-18T08:41:27.230Z,99.99
2022-10-18T08:42:27.259Z,99.99
2022-10-18T08:43:27.232Z,99.99
2022-10-18T08:44:27.200Z,99.99
2022-10-18T08:45:41.074Z,99.99
2022-10-18T08:46:28.745Z,99.99
2022-10-18T08:47:27.146Z,99.99
2022-10-18T08:48:27.150Z,99.99
2022-10-18T08:49:27.111Z,99.99
2022-10-18T08:50:27.119Z,99.99
2022-10-18T08:51:27.203Z,99.99
2022-10-18T08:52:27.132Z,99.99
2022-10-18T08:53:27.162Z,99.99
2022-10-18T08:54:27.080Z,99.99
2022-10-18T08:55:27.062Z,99.99
2022-10-18T08:56:27.050Z,99.99
2022-10-18T08:57:27.063Z,99.99
2022-10-18T08:58:27.029Z,99.99
2022-10-18T08:59:27.019Z,99.99
2022-10-18T09:00:27.010Z,99.99
2022-10-18T09:01:26.989Z,99.99
2022-10-18T09:02:27.014Z,99.99
2022-10-18T09:03:27.008Z,99.99
2022-10-18T09:04:26.970Z,99.99
2022-10-18T09:05:26.950Z,99.99
2022-10-18T09:06:26.946Z,99.99
2022-10-18T09:07:26.943Z,99.99
2022-10-18T09:08:26.922Z,99.99
2022-10-18T09:09:26.902Z,99.99
2022-10-18T09:10:26.890Z,99.99
2022-10-18T09:11:26.879Z,99.99
2022-10-18T09:12:26.871Z,99.99
2022-10-18T09:13:26.882Z,99.99
2022-10-18T09:14:26.855Z,99.99
2022-10-18T09:15:26.822Z,99.99
2022-10-18T09:16:26.843Z,99.99
2022-10-18T09:17:26.835Z,99.99
2022-10-18T09:18:26.820Z,99.99
2022-10-18T09:19:26.795Z,99.99
2022-10-18T09:20:26.790Z,99.99
2022-10-18T09:21:26.806Z,99.99
2022-10-18T09:22:26.744Z,99.99
2022-10-18T09:23:26.755Z,99.99
2022-10-18T09:24:26.755Z,99.99
2022-10-18T09:25:26.724Z,99.99
2022-10-18T09:26:26.721Z,99.99
2022-10-18T09:27:26.684Z,99.99
2022-10-18T09:28:26.772Z,99.99
2022-10-18T09:29:26.785Z,99.99
2022-10-18T09:30:26.666Z,99.99
2022-10-18T09:31:26.654Z,99.99
2022-10-18T09:32:26.650Z,99.99
2022-10-18T09:33:26.674Z,99.99
2022-10-18T09:34:26.666Z,99.99
2022-10-18T09:35:26.594Z,99.99
2022-10-18T09:36:26.610Z,99.99
2022-10-18T09:37:26.611Z,99.99
2022-10-18T09:38:26.583Z,99.99
2022-10-18T09:39:26.587Z,99.99
2022-10-18T09:40:26.538Z,99.99
2022-10-18T09:41:26.574Z,99.99
2022-10-18T09:42:26.518Z,99.99
2022-10-18T09:43:26.914Z,99.99
2022-10-18T09:44:26.518Z,99.99
2022-10-18T09:45:26.510Z,99.99
2022-10-18T09:46:27.007Z,99.99
2022-10-18T09:47:26.500Z,99.99
2022-10-18T09:48:26.467Z,99.99
2022-10-18T09:49:26.476Z,99.99
2022-10-18T09:50:26.427Z,99.99
2022-10-18T09:51:26.419Z,99.99
2022-10-18T09:52:26.434Z,99.99
2022-10-18T09:53:26.415Z,99.99
2022-10-18T09:54:26.435Z,99.99
2022-10-18T09:55:26.393Z,99.99
2022-10-18T09:56:26.366Z,99.99
2022-10-18T09:57:26.359Z,99.99
2022-10-18T09:58:26.350Z,99.99
2022-10-18T09:59:26.352Z,99.99
2022-10-18T10:00:26.361Z,99.99
2022-10-18T10:01:26.331Z,99.99
2022-10-18T10:02:26.353Z,99.99
2022-10-18T10:03:26.303Z,99.99
2022-10-18T10:04:26.279Z,99.99
2022-10-18T10:05:26.787Z,99.99
2022-10-18T10:06:26.273Z,99.99
2022-10-18T10:07:27.693Z,99.99
2022-10-18T10:08:26.239Z,99.99
2022-10-18T10:09:26.259Z,99.99
2022-10-18T10:10:26.210Z,99.99
2022-10-18T10:11:26.203Z,99.99
2022-10-18T10:12:26.191Z,99.99
2022-10-18T10:13:26.209Z,99.99
2022-10-18T10:14:26.182Z,99.99
2022-10-18T10:15:28.256Z,99.99
2022-10-18T10:16:27.139Z,99.99
2022-10-18T10:17:26.157Z,99.99
2022-10-18T10:18:26.151Z,99.99
2022-10-18T10:19:26.135Z,99.99
2022-10-18T10:20:26.103Z,99.99
2022-10-18T10:21:26.103Z,99.99
2022-10-18T10:22:26.144Z,99.99
2022-10-18T10:23:26.076Z,99.99
2022-10-18T10:24:28.866Z,99.99
2022-10-18T10:25:27.067Z,99.99
2022-10-18T10:26:26.031Z,99.99
2022-10-18T10:27:26.023Z,99.99
2022-10-18T10:28:26.047Z,99.99
2022-10-18T10:29:43.683Z,99.99
2022-10-18T10:30:27.003Z,99.99
2022-10-18T10:31:25.976Z,99.99
2022-10-18T10:33:25.965Z,99.99
2022-10-18T10:34:25.944Z,99.99
2022-10-18T10:35:41.416Z,99.99
2022-10-18T10:36:27.092Z,99.99
2022-10-18T10:37:25.915Z,99.99
2022-10-18T10:38:26.044Z,99.99
2022-10-18T10:39:25.920Z,99.99
2022-10-18T10:40:28.506Z,99.99
2022-10-18T10:41:25.901Z,99.99
2022-10-18T10:42:25.847Z,99.99
2022-10-18T10:43:37.137Z,99.99
2022-10-18T10:44:26.838Z,99.99
2022-10-18T10:45:25.987Z,99.99
2022-10-18T10:46:26.008Z,99.99
2022-10-18T10:47:25.988Z,99.99
2022-10-18T10:48:28.793Z,99.99
2022-10-18T10:49:42.169Z,99.99
2022-10-18T10:50:26.836Z,99.99
2022-10-18T10:51:25.759Z,99.99
2022-10-18T10:52:28.103Z,99.99
2022-10-18T10:53:25.746Z,99.99
2022-10-18T10:54:25.715Z,99.99
2022-10-18T10:55:34.865Z,99.99
2022-10-18T10:56:26.816Z,99.99
2022-10-18T10:57:25.689Z,99.99
2022-10-18T10:58:25.679Z,99.99
2022-10-18T10:59:25.678Z,99.99
2022-10-18T11:00:25.685Z,99.99
2022-10-18T11:01:25.679Z,99.99
2022-10-18T11:02:25.619Z,99.99
2022-10-18T11:03:29.887Z,99.99
2022-10-18T11:04:25.612Z,99.99
2022-10-18T11:05:25.692Z,99.99
2022-10-18T11:06:25.612Z,99.99
2022-10-18T11:07:25.572Z,99.99
2022-10-18T11:08:25.559Z,99.99
2022-10-18T11:09:25.551Z,99.99
2022-10-18T11:10:25.544Z,99.99
2022-10-18T11:11:25.607Z,99.99
2022-10-18T11:12:25.578Z,99.99
2022-10-18T11:13:25.540Z,99.99
2022-10-18T11:14:26.892Z,99.99
2022-10-18T11:15:25.603Z,99.99
2022-10-18T11:16:25.679Z,99.99
2022-10-18T11:17:25.632Z,99.99
2022-10-18T11:18:25.599Z,99.99
2022-10-18T11:19:27.805Z,99.99
2022-10-18T11:20:25.615Z,99.77
2022-10-18T11:21:25.598Z,99.77
2022-10-18T11:22:25.683Z,99.46
2022-10-18T11:23:25.915Z,99.66
2022-10-18T11:24:25.643Z,99.87
2022-10-18T11:25:25.615Z,98.90
2022-10-18T11:26:25.363Z,98.60
2022-10-18T11:27:25.371Z,98.39
2022-10-18T11:28:25.381Z,98.19
2022-10-18T11:29:25.324Z,98.50
2022-10-18T11:30:25.307Z,98.85
2022-10-18T11:31:25.306Z,97.49
2022-10-18T11:32:25.275Z,97.38
2022-10-18T11:33:38.295Z,97.49
2022-10-18T11:34:26.269Z,97.64
2022-10-18T11:35:25.276Z,97.54
2022-10-18T11:36:25.249Z,97.03
2022-10-18T11:37:31.264Z,96.73
2022-10-18T11:38:26.236Z,96.73
2022-10-18T11:39:25.216Z,96.83
2022-10-18T11:40:25.227Z,96.33
2022-10-18T11:41:25.183Z,96.12
2022-10-18T11:42:25.167Z,96.42
2022-10-18T11:43:34.335Z,95.92
2022-10-18T11:44:26.259Z,95.87
2022-10-18T11:45:25.257Z,95.57
2022-10-18T11:46:25.137Z,95.07
2022-10-18T11:47:25.136Z,94.92
2022-10-18T11:48:25.142Z,94.11
2022-10-18T11:49:25.111Z,93.71
2022-10-18T11:50:25.089Z,94.01
2022-10-18T11:51:33.968Z,93.96
2022-10-18T11:52:26.050Z,93.46
2022-10-18T11:53:25.048Z,92.85
2022-10-18T11:54:25.060Z,92.45
2022-10-18T11:55:27.725Z,92.45
2022-10-18T11:56:26.028Z,92.45
2022-10-18T11:57:25.051Z,92.76
2022-10-18T11:58:25.028Z,92.85
2022-10-18T11:59:25.004Z,92.65
2022-10-18T12:00:25.067Z,92.25
2022-10-18T12:01:28.334Z,92.35
2022-10-18T12:02:24.977Z,92.91
2022-10-18T12:03:24.959Z,92.30
2022-10-18T12:04:24.920Z,91.70
2022-10-18T12:05:25.236Z,91.44
2022-10-18T12:06:24.896Z,92.30
2022-10-18T12:07:28.991Z,91.19
2022-10-18T12:08:26.127Z,89.78
2022-10-18T12:09:24.887Z,90.03
2022-10-18T12:10:37.830Z,90.28
2022-10-18T12:11:26.200Z,91.39
2022-10-18T12:12:24.833Z,90.89
2022-10-18T12:13:24.861Z,90.39
2022-10-18T12:14:24.812Z,90.65
2022-10-18T12:15:24.814Z,89.78
2022-10-18T12:16:45.450Z,90.49
2022-10-18T12:17:51.043Z,90.34
2022-10-18T12:18:25.793Z,90.55
2022-10-18T12:19:26.838Z,90.34
2022-10-18T12:20:24.813Z,90.04
2022-10-18T12:21:25.937Z,90.59
2022-10-18T12:22:24.730Z,89.98
2022-10-18T12:23:24.742Z,90.28
2022-10-18T12:24:24.733Z,90.28
2022-10-18T12:25:24.804Z,90.94
2022-10-18T12:26:24.749Z,91.64
2022-10-18T12:27:24.701Z,92.91
2022-10-18T12:28:24.749Z,91.80
2022-10-18T12:29:24.652Z,91.70
2022-10-18T12:30:24.620Z,91.30
2022-10-18T12:31:24.645Z,90.59
2022-10-18T12:32:24.597Z,91.05
2022-10-18T12:33:28.280Z,90.45
2022-10-18T12:34:24.605Z,89.90
2022-10-18T12:35:24.584Z,89.29
2022-10-18T12:36:24.597Z,88.18
2022-10-18T12:37:24.644Z,88.48
2022-10-18T12:38:24.658Z,89.75
2022-10-18T12:39:33.323Z,88.95
2022-10-18T12:40:25.513Z,87.43
2022-10-18T12:41:24.778Z,87.54
2022-10-18T12:42:24.553Z,86.93
2022-10-18T12:43:24.558Z,86.13
2022-10-18T12:44:24.476Z,86.22
2022-10-18T12:45:24.487Z,86.47
2022-10-18T12:46:24.518Z,87.27
2022-10-18T12:47:24.445Z,87.38
2022-10-18T12:48:24.425Z,87.68
2022-10-18T12:49:24.443Z,87.27
2022-10-18T12:50:24.424Z,87.27
2022-10-18T12:51:24.417Z,87.58
2022-10-18T12:52:24.404Z,87.58
2022-10-18T12:53:24.408Z,87.58
2022-10-18T12:54:24.361Z,87.27
2022-10-18T12:55:24.381Z,87.18